sensor_id;sensor_type;location;lat;lon;timestamp;temperature;humidity
32728;DHT22;55292;51.844;19.246;2022-08-19T00:01:39;20.70;99.90
32728;DHT22;55292;51.844;19.246;2022-08-19T00:06:44;20.60;99.90
32728;DHT22;55292;51.844;19.246;2022-08-19T00:11:47;20.70;99.90
32728;DHT22;55292;51.844;19.246;2022-08-19T00:16:49;20.60;99.90
32728;DHT22;55292;51.844;19.246;2022-08-19T00:21:56;20.70;99.90
32728;DHT22;55292;51.844;19.246;2022-08-19T00:26:59;20.70;99.90
32728;DHT22;55292;51.844;19.246;2022-08-19T00:32:24;20.60;99.90
32728;DHT22;55292;51.844;19.246;2022-08-19T00:37:28;20.50;99.90
32728;DHT22;55292;51.844;19.246;2022-08-19T00:42:30;20.40;99.90
32728;DHT22;55292;51.844;19.246;2022-08-19T00:47:33;20.50;99.90
32728;DHT22;55292;51.844;19.246;2022-08-19T00:52:39;20.50;99.90
32728;DHT22;55292;51.844;19.246;2022-08-19T00:57:52;20.30;99.90
32728;DHT22;55292;51.844;19.246;2022-08-19T01:02:57;19.70;99.90
32728;DHT22;55292;51.844;19.246;2022-08-19T01:08:02;19.30;99.90
32728;DHT22;55292;51.844;19.246;2022-08-19T01:13:05;18.90;99.90
32728;DHT22;55292;51.844;19.246;2022-08-19T01:18:10;18.70;99.90
32728;DHT22;55292;51.844;19.246;2022-08-19T01:23:14;18.70;99.90
32728;DHT22;55292;51.844;19.246;2022-08-19T01:28:23;18.70;99.90
32728;DHT22;55292;51.844;19.246;2022-08-19T01:33:41;19.10;99.90
32728;DHT22;55292;51.844;19.246;2022-08-19T01:38:43;19.50;99.90
32728;DHT22;55292;51.844;19.246;2022-08-19T01:43:47;19.90;99.90
32728;DHT22;55292;51.844;19.246;2022-08-19T01:49:10;20.10;99.90
32728;DHT22;55292;51.844;19.246;2022-08-19T01:54:14;20.20;99.90
32728;DHT22;55292;51.844;19.246;2022-08-19T01:59:30;20.20;99.90
32728;DHT22;55292;51.844;19.246;2022-08-19T02:04:34;20.10;99.90
32728;DHT22;55292;51.844;19.246;2022-08-19T02:09:37;20.10;99.90
32728;DHT22;55292;51.844;19.246;2022-08-19T02:14:40;20.20;99.90
32728;DHT22;55292;51.844;19.246;2022-08-19T02:19:43;20.30;99.90
32728;DHT22;55292;51.844;19.246;2022-08-19T02:24:45;20.00;99.90
32728;DHT22;55292;51.844;19.246;2022-08-19T02:29:50;21.00;99.90
32728;DHT22;55292;51.844;19.246;2022-08-19T02:34:53;20.70;99.90
32728;DHT22;55292;51.844;19.246;2022-08-19T02:39:56;20.70;99.90
32728;DHT22;55292;51.844;19.246;2022-08-19T02:44:59;20.90;99.90
32728;DHT22;55292;51.844;19.246;2022-08-19T02:50:03;21.10;99.90
32728;DHT22;55292;51.844;19.246;2022-08-19T02:55:07;21.40;99.90
32728;DHT22;55292;51.844;19.246;2022-08-19T03:00:10;21.40;99.90
32728;DHT22;55292;51.844;19.246;2022-08-19T03:05:16;21.20;99.90
32728;DHT22;55292;51.844;19.246;2022-08-19T03:10:19;21.20;99.90
32728;DHT22;55292;51.844;19.246;2022-08-19T03:15:21;21.40;99.90
32728;DHT22;55292;51.844;19.246;2022-08-19T03:20:24;21.40;99.90
32728;DHT22;55292;51.844;19.246;2022-08-19T03:25:27;21.40;99.90
32728;DHT22;55292;51.844;19.246;2022-08-19T03:30:30;21.50;99.90
32728;DHT22;55292;51.844;19.246;2022-08-19T03:35:35;21.60;99.90
32728;DHT22;55292;51.844;19.246;2022-08-19T03:40:40;21.40;99.90
32728;DHT22;55292;51.844;19.246;2022-08-19T03:45:43;21.20;99.90
32728;DHT22;55292;51.844;19.246;2022-08-19T03:50:46;21.30;99.90
32728;DHT22;55292;51.844;19.246;2022-08-19T03:55:48;21.50;99.90
32728;DHT22;55292;51.844;19.246;2022-08-19T04:00:51;21.50;99.90
32728;DHT22;55292;51.844;19.246;2022-08-19T04:05:54;21.80;99.90
32728;DHT22;55292;51.844;19.246;2022-08-19T04:10:56;21.90;99.90
32728;DHT22;55292;51.844;19.246;2022-08-19T04:15:59;22.00;99.90
32728;DHT22;55292;51.844;19.246;2022-08-19T04:21:03;22.20;99.90
32728;DHT22;55292;51.844;19.246;2022-08-19T04:26:05;22.40;99.90
32728;DHT22;55292;51.844;19.246;2022-08-19T04:31:19;22.60;99.90
32728;DHT22;55292;51.844;19.246;2022-08-19T04:36:31;22.80;99.90
32728;DHT22;55292;51.844;19.246;2022-08-19T04:41:34;23.10;99.90
32728;DHT22;55292;51.844;19.246;2022-08-19T04:46:56;23.10;99.90
32728;DHT22;55292;51.844;19.246;2022-08-19T04:52:00;23.30;99.90
32728;DHT22;55292;51.844;19.246;2022-08-19T04:57:03;23.20;99.90
32728;DHT22;55292;51.844;19.246;2022-08-19T05:02:09;23.10;99.90
32728;DHT22;55292;51.844;19.246;2022-08-19T05:07:12;23.30;99.90
32728;DHT22;55292;51.844;19.246;2022-08-19T05:12:14;24.00;99.90
32728;DHT22;55292;51.844;19.246;2022-08-19T05:17:18;24.50;99.90
32728;DHT22;55292;51.844;19.246;2022-08-19T05:22:31;24.80;99.90
32728;DHT22;55292;51.844;19.246;2022-08-19T05:27:35;25.10;99.90
32728;DHT22;55292;51.844;19.246;2022-08-19T05:32:38;25.40;99.90
32728;DHT22;55292;51.844;19.246;2022-08-19T05:37:41;26.10;99.90
32728;DHT22;55292;51.844;19.246;2022-08-19T05:42:44;26.80;99.90
32728;DHT22;55292;51.844;19.246;2022-08-19T05:47:56;26.50;99.90
32728;DHT22;55292;51.844;19.246;2022-08-19T05:52:59;26.30;99.90
32728;DHT22;55292;51.844;19.246;2022-08-19T05:58:02;25.80;99.90
32728;DHT22;55292;51.844;19.246;2022-08-19T06:03:05;25.60;99.90
32728;DHT22;55292;51.844;19.246;2022-08-19T06:08:14;25.80;99.90
32728;DHT22;55292;51.844;19.246;2022-08-19T06:13:17;25.80;99.90
32728;DHT22;55292;51.844;19.246;2022-08-19T06:18:21;25.70;99.90
32728;DHT22;55292;51.844;19.246;2022-08-19T06:23:24;26.00;99.90
32728;DHT22;55292;51.844;19.246;2022-08-19T06:28:28;26.10;99.90
32728;DHT22;55292;51.844;19.246;2022-08-19T06:33:30;26.10;99.90
32728;DHT22;55292;51.844;19.246;2022-08-19T06:38:33;26.20;99.90
32728;DHT22;55292;51.844;19.246;2022-08-19T06:43:35;26.00;99.90
32728;DHT22;55292;51.844;19.246;2022-08-19T06:48:43;25.80;99.90
32728;DHT22;55292;51.844;19.246;2022-08-19T06:53:52;25.70;99.90
32728;DHT22;55292;51.844;19.246;2022-08-19T06:58:57;25.90;99.90
32728;DHT22;55292;51.844;19.246;2022-08-19T07:04:00;26.10;99.90
32728;DHT22;55292;51.844;19.246;2022-08-19T07:09:08;26.30;99.90
32728;DHT22;55292;51.844;19.246;2022-08-19T07:14:14;26.60;99.90
32728;DHT22;55292;51.844;19.246;2022-08-19T07:19:23;26.70;99.90
32728;DHT22;55292;51.844;19.246;2022-08-19T07:24:29;26.70;99.90
32728;DHT22;55292;51.844;19.246;2022-08-19T07:29:35;27.10;99.90
32728;DHT22;55292;51.844;19.246;2022-08-19T07:34:39;27.40;99.90
32728;DHT22;55292;51.844;19.246;2022-08-19T07:39:44;27.40;99.90
32728;DHT22;55292;51.844;19.246;2022-08-19T07:44:46;27.30;99.90
32728;DHT22;55292;51.844;19.246;2022-08-19T07:49:51;27.80;99.90
32728;DHT22;55292;51.844;19.246;2022-08-19T07:54:55;27.90;99.90
32728;DHT22;55292;51.844;19.246;2022-08-19T07:59:58;27.90;99.90
32728;DHT22;55292;51.844;19.246;2022-08-19T08:05:01;28.00;99.90
32728;DHT22;55292;51.844;19.246;2022-08-19T08:10:22;28.10;99.90
32728;DHT22;55292;51.844;19.246;2022-08-19T08:15:25;28.30;99.90
32728;DHT22;55292;51.844;19.246;2022-08-19T08:20:30;28.40;99.90
32728;DHT22;55292;51.844;19.246;2022-08-19T08:25:34;28.40;99.90
32728;DHT22;55292;51.844;19.246;2022-08-19T08:30:37;28.60;99.90
32728;DHT22;55292;51.844;19.246;2022-08-19T08:35:47;29.10;99.90
32728;DHT22;55292;51.844;19.246;2022-08-19T08:41:00;29.20;99.90
32728;DHT22;55292;51.844;19.246;2022-08-19T08:46:43;29.40;99.90
32728;DHT22;55292;51.844;19.246;2022-08-19T08:51:48;29.30;99.90
32728;DHT22;55292;51.844;19.246;2022-08-19T08:57:06;29.30;99.90
32728;DHT22;55292;51.844;19.246;2022-08-19T09:02:09;29.80;99.90
32728;DHT22;55292;51.844;19.246;2022-08-19T09:18:11;30.60;99.90
32728;DHT22;55292;51.844;19.246;2022-08-19T09:23:20;30.90;99.90
32728;DHT22;55292;51.844;19.246;2022-08-19T09:28:30;30.90;99.90
32728;DHT22;55292;51.844;19.246;2022-08-19T09:33:33;31.00;99.90
32728;DHT22;55292;51.844;19.246;2022-08-19T09:38:37;30.60;99.90
32728;DHT22;55292;51.844;19.246;2022-08-19T09:43:50;30.80;99.90
32728;DHT22;55292;51.844;19.246;2022-08-19T09:48:58;31.10;99.90
32728;DHT22;55292;51.844;19.246;2022-08-19T09:54:08;31.20;99.80
32728;DHT22;55292;51.844;19.246;2022-08-19T09:59:12;31.40;99.10
32728;DHT22;55292;51.844;19.246;2022-08-19T10:04:15;31.10;99.40
32728;DHT22;55292;51.844;19.246;2022-08-19T10:09:23;31.50;97.60
32728;DHT22;55292;51.844;19.246;2022-08-19T10:14:35;31.60;97.70
32728;DHT22;55292;51.844;19.246;2022-08-19T10:19:40;31.70;97.60
32728;DHT22;55292;51.844;19.246;2022-08-19T10:24:56;31.60;96.50
32728;DHT22;55292;51.844;19.246;2022-08-19T10:29:59;31.70;96.70
32728;DHT22;55292;51.844;19.246;2022-08-19T10:35:03;31.80;95.80
32728;DHT22;55292;51.844;19.246;2022-08-19T10:40:10;31.90;96.30
32728;DHT22;55292;51.844;19.246;2022-08-19T10:45:13;32.40;96.40
32728;DHT22;55292;51.844;19.246;2022-08-19T10:50:16;32.30;94.20
32728;DHT22;55292;51.844;19.246;2022-08-19T10:55:39;32.30;94.40
32728;DHT22;55292;51.844;19.246;2022-08-19T11:01:01;32.50;93.20
32728;DHT22;55292;51.844;19.246;2022-08-19T11:06:06;32.50;93.00
32728;DHT22;55292;51.844;19.246;2022-08-19T11:11:09;32.70;93.70
32728;DHT22;55292;51.844;19.246;2022-08-19T11:16:15;32.50;93.10
32728;DHT22;55292;51.844;19.246;2022-08-19T11:21:26;32.40;91.80
32728;DHT22;55292;51.844;19.246;2022-08-19T11:26:30;32.60;91.40
32728;DHT22;55292;51.844;19.246;2022-08-19T11:31:35;32.80;90.30
32728;DHT22;55292;51.844;19.246;2022-08-19T11:36:40;32.90;90.90
32728;DHT22;55292;51.844;19.246;2022-08-19T11:41:44;32.60;90.20
32728;DHT22;55292;51.844;19.246;2022-08-19T11:46:47;32.70;90.40
32728;DHT22;55292;51.844;19.246;2022-08-19T11:51:50;32.80;88.20
32728;DHT22;55292;51.844;19.246;2022-08-19T11:56:55;32.90;86.20
32728;DHT22;55292;51.844;19.246;2022-08-19T12:01:58;33.10;88.50
32728;DHT22;55292;51.844;19.246;2022-08-19T12:07:01;33.30;87.70
32728;DHT22;55292;51.844;19.246;2022-08-19T12:12:04;33.60;85.20
32728;DHT22;55292;51.844;19.246;2022-08-19T12:17:07;33.50;84.00
32728;DHT22;55292;51.844;19.246;2022-08-19T12:22:11;33.60;82.90
32728;DHT22;55292;51.844;19.246;2022-08-19T12:27:14;33.80;82.20
32728;DHT22;55292;51.844;19.246;2022-08-19T12:32:38;33.50;82.90
32728;DHT22;55292;51.844;19.246;2022-08-19T12:37:40;33.30;84.10
32728;DHT22;55292;51.844;19.246;2022-08-19T12:42:58;33.70;82.30
32728;DHT22;55292;51.844;19.246;2022-08-19T12:48:01;33.50;80.60
32728;DHT22;55292;51.844;19.246;2022-08-19T12:53:25;33.40;79.40
32728;DHT22;55292;51.844;19.246;2022-08-19T12:58:29;33.50;81.70
32728;DHT22;55292;51.844;19.246;2022-08-19T13:03:31;33.90;76.40
32728;DHT22;55292;51.844;19.246;2022-08-19T13:08:39;34.20;74.60
32728;DHT22;55292;51.844;19.246;2022-08-19T13:13:48;33.70;73.70
32728;DHT22;55292;51.844;19.246;2022-08-19T13:18:52;33.80;75.00
32728;DHT22;55292;51.844;19.246;2022-08-19T13:23:55;33.30;75.20
32728;DHT22;55292;51.844;19.246;2022-08-19T13:28:58;33.30;76.80
32728;DHT22;55292;51.844;19.246;2022-08-19T13:34:34;33.20;75.80
32728;DHT22;55292;51.844;19.246;2022-08-19T13:39:40;32.70;76.90
32728;DHT22;55292;51.844;19.246;2022-08-19T13:44:42;32.70;76.00
32728;DHT22;55292;51.844;19.246;2022-08-19T13:49:45;32.80;78.40
32728;DHT22;55292;51.844;19.246;2022-08-19T13:54:48;33.20;78.70
32728;DHT22;55292;51.844;19.246;2022-08-19T13:59:50;33.80;77.70
32728;DHT22;55292;51.844;19.246;2022-08-19T14:04:53;33.90;75.40
32728;DHT22;55292;51.844;19.246;2022-08-19T14:09:56;33.90;73.60
32728;DHT22;55292;51.844;19.246;2022-08-19T14:15:00;33.80;75.10
32728;DHT22;55292;51.844;19.246;2022-08-19T14:20:06;33.60;74.90
32728;DHT22;55292;51.844;19.246;2022-08-19T14:25:16;33.20;75.90
32728;DHT22;55292;51.844;19.246;2022-08-19T14:30:24;33.40;76.30
32728;DHT22;55292;51.844;19.246;2022-08-19T14:35:32;33.70;76.20
32728;DHT22;55292;51.844;19.246;2022-08-19T14:40:38;33.50;75.10
32728;DHT22;55292;51.844;19.246;2022-08-19T14:45:41;32.80;77.50
32728;DHT22;55292;51.844;19.246;2022-08-19T14:50:45;32.30;79.30
32728;DHT22;55292;51.844;19.246;2022-08-19T14:55:47;32.20;79.10
32728;DHT22;55292;51.844;19.246;2022-08-19T15:00:50;32.00;80.00
32728;DHT22;55292;51.844;19.246;2022-08-19T15:05:54;31.90;82.20
32728;DHT22;55292;51.844;19.246;2022-08-19T15:10:58;31.40;84.60
32728;DHT22;55292;51.844;19.246;2022-08-19T15:16:01;30.90;85.50
32728;DHT22;55292;51.844;19.246;2022-08-19T15:21:04;30.40;86.00
32728;DHT22;55292;51.844;19.246;2022-08-19T15:26:07;30.10;87.20
32728;DHT22;55292;51.844;19.246;2022-08-19T15:31:19;30.10;90.20
32728;DHT22;55292;51.844;19.246;2022-08-19T15:36:30;30.60;88.10
32728;DHT22;55292;51.844;19.246;2022-08-19T15:41:32;31.10;89.50
32728;DHT22;55292;51.844;19.246;2022-08-19T15:46:39;31.30;87.00
32728;DHT22;55292;51.844;19.246;2022-08-19T15:51:45;31.20;87.10
32728;DHT22;55292;51.844;19.246;2022-08-19T15:56:50;31.20;86.20
32728;DHT22;55292;51.844;19.246;2022-08-19T16:02:12;31.30;87.70
32728;DHT22;55292;51.844;19.246;2022-08-19T16:07:35;31.00;89.00
32728;DHT22;55292;51.844;19.246;2022-08-19T16:12:37;30.80;90.00
32728;DHT22;55292;51.844;19.246;2022-08-19T16:17:43;30.40;90.80
32728;DHT22;55292;51.844;19.246;2022-08-19T16:22:58;30.30;92.40
32728;DHT22;55292;51.844;19.246;2022-08-19T16:28:01;30.20;94.10
32728;DHT22;55292;51.844;19.246;2022-08-19T16:33:10;30.10;95.40
32728;DHT22;55292;51.844;19.246;2022-08-19T16:38:12;29.90;93.40
32728;DHT22;55292;51.844;19.246;2022-08-19T16:43:15;29.90;93.90
32728;DHT22;55292;51.844;19.246;2022-08-19T16:48:23;29.80;93.80
32728;DHT22;55292;51.844;19.246;2022-08-19T16:53:27;29.60;94.80
32728;DHT22;55292;51.844;19.246;2022-08-19T16:58:33;29.40;96.80
32728;DHT22;55292;51.844;19.246;2022-08-19T17:03:36;29.20;97.80
32728;DHT22;55292;51.844;19.246;2022-08-19T17:08:41;28.70;99.90
32728;DHT22;55292;51.844;19.246;2022-08-19T17:13:50;28.30;99.90
32728;DHT22;55292;51.844;19.246;2022-08-19T17:18:55;28.00;99.90
32728;DHT22;55292;51.844;19.246;2022-08-19T17:24:00;27.80;99.90
32728;DHT22;55292;51.844;19.246;2022-08-19T17:29:04;27.40;99.90
32728;DHT22;55292;51.844;19.246;2022-08-19T17:34:07;27.20;99.90
32728;DHT22;55292;51.844;19.246;2022-08-19T17:39:10;27.20;99.90
32728;DHT22;55292;51.844;19.246;2022-08-19T17:44:13;26.90;99.90
32728;DHT22;55292;51.844;19.246;2022-08-19T17:49:15;27.00;99.90
32728;DHT22;55292;51.844;19.246;2022-08-19T17:54:19;27.00;99.90
32728;DHT22;55292;51.844;19.246;2022-08-19T17:59:21;27.10;99.90
32728;DHT22;55292;51.844;19.246;2022-08-19T18:04:29;27.00;99.90
32728;DHT22;55292;51.844;19.246;2022-08-19T18:09:34;27.10;99.90
32728;DHT22;55292;51.844;19.246;2022-08-19T18:14:44;26.70;99.90
32728;DHT22;55292;51.844;19.246;2022-08-19T18:19:47;26.60;99.90
32728;DHT22;55292;51.844;19.246;2022-08-19T18:24:50;26.40;99.90
32728;DHT22;55292;51.844;19.246;2022-08-19T18:29:53;26.10;99.90
32728;DHT22;55292;51.844;19.246;2022-08-19T18:35:04;26.00;99.90
32728;DHT22;55292;51.844;19.246;2022-08-19T18:40:16;26.20;99.90
32728;DHT22;55292;51.844;19.246;2022-08-19T18:45:39;26.40;99.90
32728;DHT22;55292;51.844;19.246;2022-08-19T18:51:01;26.40;99.90
32728;DHT22;55292;51.844;19.246;2022-08-19T18:56:04;26.40;99.90
32728;DHT22;55292;51.844;19.246;2022-08-19T19:01:16;26.40;99.90
32728;DHT22;55292;51.844;19.246;2022-08-19T19:06:23;26.30;99.90
32728;DHT22;55292;51.844;19.246;2022-08-19T19:11:32;26.30;99.90
32728;DHT22;55292;51.844;19.246;2022-08-19T19:16:37;26.20;99.90
32728;DHT22;55292;51.844;19.246;2022-08-19T19:21:45;26.20;99.90
32728;DHT22;55292;51.844;19.246;2022-08-19T19:26:50;26.20;99.90
32728;DHT22;55292;51.844;19.246;2022-08-19T19:31:53;25.40;99.90
32728;DHT22;55292;51.844;19.246;2022-08-19T19:36:57;25.30;99.90
32728;DHT22;55292;51.844;19.246;2022-08-19T19:42:08;24.80;99.90
32728;DHT22;55292;51.844;19.246;2022-08-19T19:47:22;23.80;99.90
32728;DHT22;55292;51.844;19.246;2022-08-19T19:52:26;23.30;99.90
32728;DHT22;55292;51.844;19.246;2022-08-19T19:57:28;22.90;99.90
32728;DHT22;55292;51.844;19.246;2022-08-19T20:02:32;22.70;99.90
32728;DHT22;55292;51.844;19.246;2022-08-19T20:07:35;22.30;99.90
32728;DHT22;55292;51.844;19.246;2022-08-19T20:12:57;22.30;99.90
32728;DHT22;55292;51.844;19.246;2022-08-19T20:18:00;22.30;99.90
32728;DHT22;55292;51.844;19.246;2022-08-19T20:23:06;22.30;99.90
32728;DHT22;55292;51.844;19.246;2022-08-19T20:28:08;22.20;99.90
32728;DHT22;55292;51.844;19.246;2022-08-19T20:33:13;22.20;99.90
32728;DHT22;55292;51.844;19.246;2022-08-19T20:38:16;22.10;99.90
32728;DHT22;55292;51.844;19.246;2022-08-19T20:43:18;22.30;99.90
32728;DHT22;55292;51.844;19.246;2022-08-19T20:48:21;22.30;99.90
32728;DHT22;55292;51.844;19.246;2022-08-19T20:53:25;22.30;99.90
32728;DHT22;55292;51.844;19.246;2022-08-19T20:58:29;22.30;99.90
32728;DHT22;55292;51.844;19.246;2022-08-19T21:03:35;22.20;99.90
32728;DHT22;55292;51.844;19.246;2022-08-19T21:08:44;22.40;99.90
32728;DHT22;55292;51.844;19.246;2022-08-19T21:13:50;21.90;99.90
32728;DHT22;55292;51.844;19.246;2022-08-19T21:18:52;21.90;99.90
32728;DHT22;55292;51.844;19.246;2022-08-19T21:23:55;22.10;99.90
32728;DHT22;55292;51.844;19.246;2022-08-19T21:28:58;22.00;99.90
32728;DHT22;55292;51.844;19.246;2022-08-19T21:34:01;21.70;99.90
32728;DHT22;55292;51.844;19.246;2022-08-19T21:39:04;21.50;99.90
32728;DHT22;55292;51.844;19.246;2022-08-19T21:44:08;21.50;99.90
32728;DHT22;55292;51.844;19.246;2022-08-19T21:49:10;21.40;99.90
32728;DHT22;55292;51.844;19.246;2022-08-19T21:54:13;21.30;99.90
32728;DHT22;55292;51.844;19.246;2022-08-19T21:59:16;21.30;99.90
32728;DHT22;55292;51.844;19.246;2022-08-19T22:04:19;21.30;99.90
32728;DHT22;55292;51.844;19.246;2022-08-19T22:09:21;21.20;99.90
32728;DHT22;55292;51.844;19.246;2022-08-19T22:14:24;21.10;99.90
32728;DHT22;55292;51.844;19.246;2022-08-19T22:19:28;21.10;99.90
32728;DHT22;55292;51.844;19.246;2022-08-19T22:24:31;21.10;99.90
32728;DHT22;55292;51.844;19.246;2022-08-19T22:29:33;21.10;99.90
32728;DHT22;55292;51.844;19.246;2022-08-19T22:34:39;21.00;99.90
32728;DHT22;55292;51.844;19.246;2022-08-19T22:39:43;20.90;99.90
32728;DHT22;55292;51.844;19.246;2022-08-19T22:44:46;21.00;99.90
32728;DHT22;55292;51.844;19.246;2022-08-19T22:49:50;21.10;99.90
32728;DHT22;55292;51.844;19.246;2022-08-19T22:54:57;21.20;99.90
32728;DHT22;55292;51.844;19.246;2022-08-19T23:00:02;21.10;99.90
32728;DHT22;55292;51.844;19.246;2022-08-19T23:05:08;21.10;99.90
32728;DHT22;55292;51.844;19.246;2022-08-19T23:10:11;21.00;99.90
32728;DHT22;55292;51.844;19.246;2022-08-19T23:15:17;21.10;99.90
32728;DHT22;55292;51.844;19.246;2022-08-19T23:20:23;21.00;99.90
32728;DHT22;55292;51.844;19.246;2022-08-19T23:25:30;21.10;99.90
32728;DHT22;55292;51.844;19.246;2022-08-19T23:30:36;21.10;99.90
32728;DHT22;55292;51.844;19.246;2022-08-19T23:35:39;21.10;99.90
32728;DHT22;55292;51.844;19.246;2022-08-19T23:40:43;21.10;99.90
32728;DHT22;55292;51.844;19.246;2022-08-19T23:45:46;21.10;99.90
32728;DHT22;55292;51.844;19.246;2022-08-19T23:50:53;20.90;99.90
32728;DHT22;55292;51.844;19.246;2022-08-19T23:55:56;21.00;99.90
